sensor_id;sensor_type;location;lat;lon;timestamp;temperature;humidity
4556;DHT22;2290;48.674;9.018;2024-03-23T00:53:12;11.80;99.90
4556;DHT22;2290;48.674;9.018;2024-03-23T00:55:38;11.80;99.90
4556;DHT22;2290;48.674;9.018;2024-03-23T00:58:03;11.80;99.90
4556;DHT22;2290;48.674;9.018;2024-03-23T01:00:29;11.90;99.90
4556;DHT22;2290;48.674;9.018;2024-03-23T01:02:54;12.00;99.90
4556;DHT22;2290;48.674;9.018;2024-03-23T01:05:20;11.90;99.90
4556;DHT22;2290;48.674;9.018;2024-03-23T01:07:46;11.90;99.90
4556;DHT22;2290;48.674;9.018;2024-03-23T01:10:11;11.80;99.90
4556;DHT22;2290;48.674;9.018;2024-03-23T01:12:37;11.90;99.90
4556;DHT22;2290;48.674;9.018;2024-03-23T01:15:03;11.90;99.90
4556;DHT22;2290;48.674;9.018;2024-03-23T01:17:28;11.90;99.90
4556;DHT22;2290;48.674;9.018;2024-03-23T01:19:54;11.90;99.90
4556;DHT22;2290;48.674;9.018;2024-03-23T01:22:19;11.90;99.90
4556;DHT22;2290;48.674;9.018;2024-03-23T01:24:45;12.00;99.90
4556;DHT22;2290;48.674;9.018;2024-03-23T01:27:10;11.90;99.90
4556;DHT22;2290;48.674;9.018;2024-03-23T01:29:36;11.90;99.90
4556;DHT22;2290;48.674;9.018;2024-03-23T01:32:01;11.80;99.90
4556;DHT22;2290;48.674;9.018;2024-03-23T01:34:27;11.80;99.90
4556;DHT22;2290;48.674;9.018;2024-03-23T01:36:53;11.80;99.90
4556;DHT22;2290;48.674;9.018;2024-03-23T01:39:19;11.70;99.90
4556;DHT22;2290;48.674;9.018;2024-03-23T01:41:44;11.70;99.90
4556;DHT22;2290;48.674;9.018;2024-03-23T01:44:10;11.70;99.90
4556;DHT22;2290;48.674;9.018;2024-03-23T01:46:37;11.70;99.90
4556;DHT22;2290;48.674;9.018;2024-03-23T01:49:05;11.70;99.90
4556;DHT22;2290;48.674;9.018;2024-03-23T01:51:32;11.70;99.90
4556;DHT22;2290;48.674;9.018;2024-03-23T01:53:58;11.70;99.90
4556;DHT22;2290;48.674;9.018;2024-03-23T01:56:28;11.70;99.90
4556;DHT22;2290;48.674;9.018;2024-03-23T01:58:54;11.70;99.90
4556;DHT22;2290;48.674;9.018;2024-03-23T02:01:19;11.70;99.90
4556;DHT22;2290;48.674;9.018;2024-03-23T02:03:45;11.80;99.90
4556;DHT22;2290;48.674;9.018;2024-03-23T02:06:10;11.80;99.90
4556;DHT22;2290;48.674;9.018;2024-03-23T02:08:36;11.80;99.90
4556;DHT22;2290;48.674;9.018;2024-03-23T02:11:01;11.80;99.90
4556;DHT22;2290;48.674;9.018;2024-03-23T02:13:27;11.70;99.90
4556;DHT22;2290;48.674;9.018;2024-03-23T02:15:53;11.80;99.90
4556;DHT22;2290;48.674;9.018;2024-03-23T02:18:18;11.70;99.90
4556;DHT22;2290;48.674;9.018;2024-03-23T02:20:45;11.80;99.90
4556;DHT22;2290;48.674;9.018;2024-03-23T02:23:17;11.70;99.90
4556;DHT22;2290;48.674;9.018;2024-03-23T02:25:45;11.70;99.90
4556;DHT22;2290;48.674;9.018;2024-03-23T02:28:11;11.70;99.90
4556;DHT22;2290;48.674;9.018;2024-03-23T02:30:37;11.70;99.90
4556;DHT22;2290;48.674;9.018;2024-03-23T02:33:03;11.70;99.90
4556;DHT22;2290;48.674;9.018;2024-03-23T02:35:29;11.70;99.90
4556;DHT22;2290;48.674;9.018;2024-03-23T02:37:54;11.60;99.90
4556;DHT22;2290;48.674;9.018;2024-03-23T02:40:22;11.60;99.90
4556;DHT22;2290;48.674;9.018;2024-03-23T02:42:48;11.60;99.90
4556;DHT22;2290;48.674;9.018;2024-03-23T02:45:13;11.50;99.90
4556;DHT22;2290;48.674;9.018;2024-03-23T02:47:39;11.50;99.90
4556;DHT22;2290;48.674;9.018;2024-03-23T02:50:05;11.50;99.90
4556;DHT22;2290;48.674;9.018;2024-03-23T02:52:31;11.50;99.90
4556;DHT22;2290;48.674;9.018;2024-03-23T02:54:56;11.50;99.90
4556;DHT22;2290;48.674;9.018;2024-03-23T02:57:22;11.50;99.90
4556;DHT22;2290;48.674;9.018;2024-03-23T02:59:47;11.50;99.90
4556;DHT22;2290;48.674;9.018;2024-03-23T03:02:15;11.50;99.90
4556;DHT22;2290;48.674;9.018;2024-03-23T03:04:40;11.50;99.90
4556;DHT22;2290;48.674;9.018;2024-03-23T03:07:06;11.50;99.90
4556;DHT22;2290;48.674;9.018;2024-03-23T03:09:32;11.50;99.90
4556;DHT22;2290;48.674;9.018;2024-03-23T03:11:58;11.40;99.90
4556;DHT22;2290;48.674;9.018;2024-03-23T03:14:23;11.30;99.90
4556;DHT22;2290;48.674;9.018;2024-03-23T03:16:49;11.40;99.90
4556;DHT22;2290;48.674;9.018;2024-03-23T03:19:15;11.40;99.90
4556;DHT22;2290;48.674;9.018;2024-03-23T03:21:42;11.40;99.90
4556;DHT22;2290;48.674;9.018;2024-03-23T03:24:07;11.30;99.90
4556;DHT22;2290;48.674;9.018;2024-03-23T03:26:33;11.40;99.90
4556;DHT22;2290;48.674;9.018;2024-03-23T03:28:58;11.30;99.90
4556;DHT22;2290;48.674;9.018;2024-03-23T03:31:24;11.30;99.90
4556;DHT22;2290;48.674;9.018;2024-03-23T03:33:50;11.40;99.90
4556;DHT22;2290;48.674;9.018;2024-03-23T03:36:18;11.40;99.90
4556;DHT22;2290;48.674;9.018;2024-03-23T03:38:43;11.40;99.90
4556;DHT22;2290;48.674;9.018;2024-03-23T03:41:09;11.40;99.90
4556;DHT22;2290;48.674;9.018;2024-03-23T03:43:34;11.30;99.90
4556;DHT22;2290;48.674;9.018;2024-03-23T03:46:00;11.30;99.90
4556;DHT22;2290;48.674;9.018;2024-03-23T03:48:26;11.30;99.90
4556;DHT22;2290;48.674;9.018;2024-03-23T03:50:52;11.30;99.90
4556;DHT22;2290;48.674;9.018;2024-03-23T03:53:18;11.40;99.90
4556;DHT22;2290;48.674;9.018;2024-03-23T03:55:44;11.40;99.90
4556;DHT22;2290;48.674;9.018;2024-03-23T03:58:10;11.40;99.90
4556;DHT22;2290;48.674;9.018;2024-03-23T04:00:35;11.30;99.90
4556;DHT22;2290;48.674;9.018;2024-03-23T04:03:01;11.30;99.90
4556;DHT22;2290;48.674;9.018;2024-03-23T04:05:27;11.30;99.90
4556;DHT22;2290;48.674;9.018;2024-03-23T04:07:53;11.40;99.90
4556;DHT22;2290;48.674;9.018;2024-03-23T04:10:19;11.30;99.90
4556;DHT22;2290;48.674;9.018;2024-03-23T04:12:45;11.30;99.90
4556;DHT22;2290;48.674;9.018;2024-03-23T04:15:11;11.30;99.90
4556;DHT22;2290;48.674;9.018;2024-03-23T04:17:37;11.30;99.90
4556;DHT22;2290;48.674;9.018;2024-03-23T04:20:03;11.30;99.90
4556;DHT22;2290;48.674;9.018;2024-03-23T04:22:31;11.30;99.90
4556;DHT22;2290;48.674;9.018;2024-03-23T04:24:57;11.30;99.90
4556;DHT22;2290;48.674;9.018;2024-03-23T04:27:25;11.30;99.90
4556;DHT22;2290;48.674;9.018;2024-03-23T04:29:53;11.30;99.90
4556;DHT22;2290;48.674;9.018;2024-03-23T04:32:18;11.30;99.90
4556;DHT22;2290;48.674;9.018;2024-03-23T04:34:45;11.30;99.90
4556;DHT22;2290;48.674;9.018;2024-03-23T04:37:11;11.30;99.90
4556;DHT22;2290;48.674;9.018;2024-03-23T04:39:37;11.30;99.90
4556;DHT22;2290;48.674;9.018;2024-03-23T04:42:03;11.30;99.90
4556;DHT22;2290;48.674;9.018;2024-03-23T04:44:29;11.30;99.90
4556;DHT22;2290;48.674;9.018;2024-03-23T04:46:55;11.40;99.90
4556;DHT22;2290;48.674;9.018;2024-03-23T04:49:20;11.40;99.90
4556;DHT22;2290;48.674;9.018;2024-03-23T04:51:46;11.30;99.90
4556;DHT22;2290;48.674;9.018;2024-03-23T04:54:15;11.30;99.90
4556;DHT22;2290;48.674;9.018;2024-03-23T04:56:41;11.00;99.90
4556;DHT22;2290;48.674;9.018;2024-03-23T04:59:07;11.00;99.90
4556;DHT22;2290;48.674;9.018;2024-03-23T05:01:33;10.80;99.90
4556;DHT22;2290;48.674;9.018;2024-03-23T05:03:59;10.70;99.90
4556;DHT22;2290;48.674;9.018;2024-03-23T05:06:25;10.70;99.90
4556;DHT22;2290;48.674;9.018;2024-03-23T05:08:51;10.70;99.90
4556;DHT22;2290;48.674;9.018;2024-03-23T05:11:17;10.70;99.90
4556;DHT22;2290;48.674;9.018;2024-03-23T05:13:43;10.80;99.90
4556;DHT22;2290;48.674;9.018;2024-03-23T05:16:09;10.90;99.90
4556;DHT22;2290;48.674;9.018;2024-03-23T05:18:34;10.90;99.90
4556;DHT22;2290;48.674;9.018;2024-03-23T05:21:01;10.90;99.90
4556;DHT22;2290;48.674;9.018;2024-03-23T05:23:28;10.80;99.90
4556;DHT22;2290;48.674;9.018;2024-03-23T05:25:54;10.90;99.90
4556;DHT22;2290;48.674;9.018;2024-03-23T05:28:20;10.70;99.90
4556;DHT22;2290;48.674;9.018;2024-03-23T05:30:53;10.60;99.90
4556;DHT22;2290;48.674;9.018;2024-03-23T05:33:19;10.40;99.90
4556;DHT22;2290;48.674;9.018;2024-03-23T05:35:45;10.30;99.90
4556;DHT22;2290;48.674;9.018;2024-03-23T05:38:14;10.20;99.90
4556;DHT22;2290;48.674;9.018;2024-03-23T05:40:40;10.10;99.90
4556;DHT22;2290;48.674;9.018;2024-03-23T05:43:08;10.00;99.90
4556;DHT22;2290;48.674;9.018;2024-03-23T05:45:34;9.90;99.90
4556;DHT22;2290;48.674;9.018;2024-03-23T05:48:00;9.90;99.90
4556;DHT22;2290;48.674;9.018;2024-03-23T05:50:27;9.90;99.90
4556;DHT22;2290;48.674;9.018;2024-03-23T05:52:52;9.80;99.90
4556;DHT22;2290;48.674;9.018;2024-03-23T05:55:18;9.90;99.90
4556;DHT22;2290;48.674;9.018;2024-03-23T05:57:43;9.80;99.90
4556;DHT22;2290;48.674;9.018;2024-03-23T06:00:09;9.80;99.90
4556;DHT22;2290;48.674;9.018;2024-03-23T06:02:44;9.80;99.90
4556;DHT22;2290;48.674;9.018;2024-03-23T06:05:13;9.80;99.90
4556;DHT22;2290;48.674;9.018;2024-03-23T06:07:38;9.80;99.90
4556;DHT22;2290;48.674;9.018;2024-03-23T06:10:05;9.70;99.90
4556;DHT22;2290;48.674;9.018;2024-03-23T06:12:32;9.60;99.90
4556;DHT22;2290;48.674;9.018;2024-03-23T06:14:57;9.50;99.90
4556;DHT22;2290;48.674;9.018;2024-03-23T06:17:23;9.30;99.90
4556;DHT22;2290;48.674;9.018;2024-03-23T06:19:49;9.30;99.90
4556;DHT22;2290;48.674;9.018;2024-03-23T06:22:15;9.20;99.90
4556;DHT22;2290;48.674;9.018;2024-03-23T06:24:40;9.20;99.90
4556;DHT22;2290;48.674;9.018;2024-03-23T06:27:07;9.20;99.90
4556;DHT22;2290;48.674;9.018;2024-03-23T06:29:34;9.00;99.90
4556;DHT22;2290;48.674;9.018;2024-03-23T06:32:01;9.00;99.90
4556;DHT22;2290;48.674;9.018;2024-03-23T06:34:26;9.00;99.90
4556;DHT22;2290;48.674;9.018;2024-03-23T06:36:52;8.90;99.90
4556;DHT22;2290;48.674;9.018;2024-03-23T06:39:18;8.90;99.90
4556;DHT22;2290;48.674;9.018;2024-03-23T06:41:53;8.80;99.90
4556;DHT22;2290;48.674;9.018;2024-03-23T06:44:19;8.80;99.90
4556;DHT22;2290;48.674;9.018;2024-03-23T06:46:45;8.70;99.90
4556;DHT22;2290;48.674;9.018;2024-03-23T06:49:13;8.70;99.90
4556;DHT22;2290;48.674;9.018;2024-03-23T06:51:38;8.70;99.90
4556;DHT22;2290;48.674;9.018;2024-03-23T06:54:05;8.80;99.90
4556;DHT22;2290;48.674;9.018;2024-03-23T06:56:30;8.80;99.90
4556;DHT22;2290;48.674;9.018;2024-03-23T06:58:57;8.70;99.90
4556;DHT22;2290;48.674;9.018;2024-03-23T07:01:22;8.60;99.90
4556;DHT22;2290;48.674;9.018;2024-03-23T07:03:48;8.60;99.90
4556;DHT22;2290;48.674;9.018;2024-03-23T07:06:15;8.60;99.90
4556;DHT22;2290;48.674;9.018;2024-03-23T07:08:40;8.60;99.90
4556;DHT22;2290;48.674;9.018;2024-03-23T07:11:06;8.50;99.90
4556;DHT22;2290;48.674;9.018;2024-03-23T07:13:32;8.50;99.90
4556;DHT22;2290;48.674;9.018;2024-03-23T07:15:58;8.50;99.90
4556;DHT22;2290;48.674;9.018;2024-03-23T07:18:25;8.60;99.90
4556;DHT22;2290;48.674;9.018;2024-03-23T07:20:58;8.50;99.90
4556;DHT22;2290;48.674;9.018;2024-03-23T07:23:24;8.60;99.90
4556;DHT22;2290;48.674;9.018;2024-03-23T07:26:00;8.70;99.90
4556;DHT22;2290;48.674;9.018;2024-03-23T07:28:26;8.70;99.90
4556;DHT22;2290;48.674;9.018;2024-03-23T07:31:12;8.70;99.90
4556;DHT22;2290;48.674;9.018;2024-03-23T07:33:42;8.70;99.90
4556;DHT22;2290;48.674;9.018;2024-03-23T07:36:08;8.50;99.90
4556;DHT22;2290;48.674;9.018;2024-03-23T07:38:33;8.40;99.90
4556;DHT22;2290;48.674;9.018;2024-03-23T07:41:09;8.30;99.90
4556;DHT22;2290;48.674;9.018;2024-03-23T07:43:38;8.40;99.90
4556;DHT22;2290;48.674;9.018;2024-03-23T07:46:05;8.30;99.90
4556;DHT22;2290;48.674;9.018;2024-03-23T07:48:33;8.30;99.90
4556;DHT22;2290;48.674;9.018;2024-03-23T07:51:19;8.30;99.90
4556;DHT22;2290;48.674;9.018;2024-03-23T07:53:45;8.30;99.90
4556;DHT22;2290;48.674;9.018;2024-03-23T07:56:11;8.30;99.90
4556;DHT22;2290;48.674;9.018;2024-03-23T07:58:38;8.30;99.90
4556;DHT22;2290;48.674;9.018;2024-03-23T08:01:12;8.20;99.90
4556;DHT22;2290;48.674;9.018;2024-03-23T08:03:40;8.00;99.90
4556;DHT22;2290;48.674;9.018;2024-03-23T08:06:26;7.90;99.90
4556;DHT22;2290;48.674;9.018;2024-03-23T08:08:54;8.00;99.90
4556;DHT22;2290;48.674;9.018;2024-03-23T08:11:33;8.00;99.90
4556;DHT22;2290;48.674;9.018;2024-03-23T08:14:00;7.90;99.90
4556;DHT22;2290;48.674;9.018;2024-03-23T08:16:27;8.00;99.90
4556;DHT22;2290;48.674;9.018;2024-03-23T08:18:53;8.00;99.90
4556;DHT22;2290;48.674;9.018;2024-03-23T08:21:19;8.00;99.90
4556;DHT22;2290;48.674;9.018;2024-03-23T08:23:44;8.10;99.90
4556;DHT22;2290;48.674;9.018;2024-03-23T08:26:12;8.10;99.90
4556;DHT22;2290;48.674;9.018;2024-03-23T08:28:39;8.20;99.90
4556;DHT22;2290;48.674;9.018;2024-03-23T08:31:09;8.20;99.90
4556;DHT22;2290;48.674;9.018;2024-03-23T08:33:34;8.20;99.90
4556;DHT22;2290;48.674;9.018;2024-03-23T08:36:06;8.30;99.90
4556;DHT22;2290;48.674;9.018;2024-03-23T08:38:33;8.40;99.90
4556;DHT22;2290;48.674;9.018;2024-03-23T08:41:09;8.50;99.90
4556;DHT22;2290;48.674;9.018;2024-03-23T08:43:37;8.60;99.90
4556;DHT22;2290;48.674;9.018;2024-03-23T08:46:12;8.70;99.90
4556;DHT22;2290;48.674;9.018;2024-03-23T08:48:41;8.70;99.90
4556;DHT22;2290;48.674;9.018;2024-03-23T08:51:10;8.60;99.90
4556;DHT22;2290;48.674;9.018;2024-03-23T08:53:37;8.70;99.90
4556;DHT22;2290;48.674;9.018;2024-03-23T08:56:04;8.50;99.90
4556;DHT22;2290;48.674;9.018;2024-03-23T08:58:32;8.40;99.90
4556;DHT22;2290;48.674;9.018;2024-03-23T09:01:10;8.40;99.90
4556;DHT22;2290;48.674;9.018;2024-03-23T09:03:37;8.40;99.90
4556;DHT22;2290;48.674;9.018;2024-03-23T09:06:08;8.40;99.90
4556;DHT22;2290;48.674;9.018;2024-03-23T09:08:34;8.40;99.90
4556;DHT22;2290;48.674;9.018;2024-03-23T09:11:05;8.30;99.90
4556;DHT22;2290;48.674;9.018;2024-03-23T09:13:34;8.00;99.90
4556;DHT22;2290;48.674;9.018;2024-03-23T09:16:00;7.80;99.90
4556;DHT22;2290;48.674;9.018;2024-03-23T09:18:26;7.90;99.90
4556;DHT22;2290;48.674;9.018;2024-03-23T09:20:53;8.10;99.90
4556;DHT22;2290;48.674;9.018;2024-03-23T09:23:20;8.60;99.90
4556;DHT22;2290;48.674;9.018;2024-03-23T09:25:47;8.80;99.90
4556;DHT22;2290;48.674;9.018;2024-03-23T09:28:12;8.90;99.90
4556;DHT22;2290;48.674;9.018;2024-03-23T09:30:38;8.90;99.90
4556;DHT22;2290;48.674;9.018;2024-03-23T09:33:12;9.00;99.90
4556;DHT22;2290;48.674;9.018;2024-03-23T09:35:42;9.00;99.90
4556;DHT22;2290;48.674;9.018;2024-03-23T09:38:09;8.90;99.90
4556;DHT22;2290;48.674;9.018;2024-03-23T09:40:41;8.80;99.90
4556;DHT22;2290;48.674;9.018;2024-03-23T09:43:10;8.70;99.90
4556;DHT22;2290;48.674;9.018;2024-03-23T09:45:39;8.70;99.90
4556;DHT22;2290;48.674;9.018;2024-03-23T09:48:09;8.70;99.90
4556;DHT22;2290;48.674;9.018;2024-03-23T09:50:43;8.90;99.90
4556;DHT22;2290;48.674;9.018;2024-03-23T09:53:12;9.00;99.90
4556;DHT22;2290;48.674;9.018;2024-03-23T09:55:39;9.10;99.90
4556;DHT22;2290;48.674;9.018;2024-03-23T09:58:05;9.00;99.90
4556;DHT22;2290;48.674;9.018;2024-03-23T10:00:36;8.90;99.90
4556;DHT22;2290;48.674;9.018;2024-03-23T10:03:02;8.70;99.90
4556;DHT22;2290;48.674;9.018;2024-03-23T10:05:30;8.80;99.90
4556;DHT22;2290;48.674;9.018;2024-03-23T10:10:39;9.40;99.90
4556;DHT22;2290;48.674;9.018;2024-03-23T10:13:05;9.40;99.90
4556;DHT22;2290;48.674;9.018;2024-03-23T10:15:34;9.50;99.90
4556;DHT22;2290;48.674;9.018;2024-03-23T10:18:18;9.60;99.90
4556;DHT22;2290;48.674;9.018;2024-03-23T10:23:32;9.80;99.90
4556;DHT22;2290;48.674;9.018;2024-03-23T10:26:18;9.80;99.90
4556;DHT22;2290;48.674;9.018;2024-03-23T10:29:02;9.70;99.90
4556;DHT22;2290;48.674;9.018;2024-03-23T10:31:33;9.50;99.90
4556;DHT22;2290;48.674;9.018;2024-03-23T10:33:59;9.40;99.90
4556;DHT22;2290;48.674;9.018;2024-03-23T10:36:26;9.30;99.90
4556;DHT22;2290;48.674;9.018;2024-03-23T10:38:53;9.20;99.90
4556;DHT22;2290;48.674;9.018;2024-03-23T10:41:19;9.00;99.90
4556;DHT22;2290;48.674;9.018;2024-03-23T10:43:46;8.90;99.90
4556;DHT22;2290;48.674;9.018;2024-03-23T10:46:12;8.80;99.90
4556;DHT22;2290;48.674;9.018;2024-03-23T10:48:38;8.60;99.90
4556;DHT22;2290;48.674;9.018;2024-03-23T10:51:08;8.10;99.90
4556;DHT22;2290;48.674;9.018;2024-03-23T10:53:38;7.20;99.90
4556;DHT22;2290;48.674;9.018;2024-03-23T10:56:05;6.90;99.90
4556;DHT22;2290;48.674;9.018;2024-03-23T10:58:43;6.30;99.90
4556;DHT22;2290;48.674;9.018;2024-03-23T11:01:15;5.90;99.90
4556;DHT22;2290;48.674;9.018;2024-03-23T11:03:46;5.50;99.90
4556;DHT22;2290;48.674;9.018;2024-03-23T11:06:35;5.60;99.90
4556;DHT22;2290;48.674;9.018;2024-03-23T11:09:02;5.90;99.90
4556;DHT22;2290;48.674;9.018;2024-03-23T11:11:28;6.20;99.90
4556;DHT22;2290;48.674;9.018;2024-03-23T11:13:56;6.30;99.90
4556;DHT22;2290;48.674;9.018;2024-03-23T11:16:30;6.50;99.90
4556;DHT22;2290;48.674;9.018;2024-03-23T11:19:35;6.80;99.90
4556;DHT22;2290;48.674;9.018;2024-03-23T11:22:02;7.20;99.90
4556;DHT22;2290;48.674;9.018;2024-03-23T11:24:30;7.40;99.90
4556;DHT22;2290;48.674;9.018;2024-03-23T11:26:56;7.40;99.90
4556;DHT22;2290;48.674;9.018;2024-03-23T11:29:21;7.50;99.90
4556;DHT22;2290;48.674;9.018;2024-03-23T11:31:51;7.70;99.90
4556;DHT22;2290;48.674;9.018;2024-03-23T11:34:18;7.80;99.90
4556;DHT22;2290;48.674;9.018;2024-03-23T11:36:44;8.00;99.90
4556;DHT22;2290;48.674;9.018;2024-03-23T11:39:17;8.00;99.90
4556;DHT22;2290;48.674;9.018;2024-03-23T11:41:51;8.20;99.90
4556;DHT22;2290;48.674;9.018;2024-03-23T11:44:22;8.20;99.90
4556;DHT22;2290;48.674;9.018;2024-03-23T11:46:48;8.00;99.90
4556;DHT22;2290;48.674;9.018;2024-03-23T11:49:24;7.90;99.90
4556;DHT22;2290;48.674;9.018;2024-03-23T11:51:51;8.00;99.90
4556;DHT22;2290;48.674;9.018;2024-03-23T11:54:23;7.90;99.90
4556;DHT22;2290;48.674;9.018;2024-03-23T11:57:02;7.70;99.90
4556;DHT22;2290;48.674;9.018;2024-03-23T11:59:37;7.70;99.90
4556;DHT22;2290;48.674;9.018;2024-03-23T12:02:11;8.00;99.90
4556;DHT22;2290;48.674;9.018;2024-03-23T12:04:37;8.30;99.90
4556;DHT22;2290;48.674;9.018;2024-03-23T12:07:17;8.60;99.90
4556;DHT22;2290;48.674;9.018;2024-03-23T12:09:45;8.60;99.90
4556;DHT22;2290;48.674;9.018;2024-03-23T12:12:16;8.40;99.90
4556;DHT22;2290;48.674;9.018;2024-03-23T12:15:00;8.30;99.90
4556;DHT22;2290;48.674;9.018;2024-03-23T12:17:27;8.20;99.90
4556;DHT22;2290;48.674;9.018;2024-03-23T12:19:53;7.90;99.90
4556;DHT22;2290;48.674;9.018;2024-03-23T12:22:22;7.90;99.90
4556;DHT22;2290;48.674;9.018;2024-03-23T12:24:48;7.80;99.90
4556;DHT22;2290;48.674;9.018;2024-03-23T12:27:15;7.80;99.90
4556;DHT22;2290;48.674;9.018;2024-03-23T12:29:42;7.90;99.90
4556;DHT22;2290;48.674;9.018;2024-03-23T12:32:09;8.10;99.90
4556;DHT22;2290;48.674;9.018;2024-03-23T12:34:34;8.00;99.90
4556;DHT22;2290;48.674;9.018;2024-03-23T12:37:00;8.10;99.90
4556;DHT22;2290;48.674;9.018;2024-03-23T12:39:26;8.20;99.90
4556;DHT22;2290;48.674;9.018;2024-03-23T12:41:52;8.50;99.90
4556;DHT22;2290;48.674;9.018;2024-03-23T12:44:18;8.80;99.90
4556;DHT22;2290;48.674;9.018;2024-03-23T12:46:46;8.80;99.90
4556;DHT22;2290;48.674;9.018;2024-03-23T12:49:11;8.90;99.90
4556;DHT22;2290;48.674;9.018;2024-03-23T12:51:37;8.80;99.90
4556;DHT22;2290;48.674;9.018;2024-03-23T12:54:03;8.70;99.90
4556;DHT22;2290;48.674;9.018;2024-03-23T12:56:29;8.70;99.90
4556;DHT22;2290;48.674;9.018;2024-03-23T12:58:55;8.90;99.90
4556;DHT22;2290;48.674;9.018;2024-03-23T13:01:23;8.90;99.90
4556;DHT22;2290;48.674;9.018;2024-03-23T13:03:49;8.90;99.90
4556;DHT22;2290;48.674;9.018;2024-03-23T13:06:16;8.90;99.90
4556;DHT22;2290;48.674;9.018;2024-03-23T13:08:43;8.90;99.90
4556;DHT22;2290;48.674;9.018;2024-03-23T13:11:10;8.90;99.90
4556;DHT22;2290;48.674;9.018;2024-03-23T13:13:36;8.90;99.90
4556;DHT22;2290;48.674;9.018;2024-03-23T13:16:02;8.60;99.90
4556;DHT22;2290;48.674;9.018;2024-03-23T13:18:31;8.30;99.90
4556;DHT22;2290;48.674;9.018;2024-03-23T13:20:57;8.00;99.90
4556;DHT22;2290;48.674;9.018;2024-03-23T13:23:23;7.60;99.90
4556;DHT22;2290;48.674;9.018;2024-03-23T13:25:56;7.00;99.90
4556;DHT22;2290;48.674;9.018;2024-03-23T13:28:22;6.80;99.90
4556;DHT22;2290;48.674;9.018;2024-03-23T13:30:52;7.00;99.90
4556;DHT22;2290;48.674;9.018;2024-03-23T13:33:19;7.70;99.90
4556;DHT22;2290;48.674;9.018;2024-03-23T13:35:54;8.40;99.90
4556;DHT22;2290;48.674;9.018;2024-03-23T13:38:23;9.00;99.90
4556;DHT22;2290;48.674;9.018;2024-03-23T13:40:56;9.70;99.90
4556;DHT22;2290;48.674;9.018;2024-03-23T13:43:24;10.20;99.90
4556;DHT22;2290;48.674;9.018;2024-03-23T13:45:54;10.50;99.90
4556;DHT22;2290;48.674;9.018;2024-03-23T13:48:21;10.20;99.90
4556;DHT22;2290;48.674;9.018;2024-03-23T13:50:47;10.20;99.90
4556;DHT22;2290;48.674;9.018;2024-03-23T13:53:14;10.30;99.90
4556;DHT22;2290;48.674;9.018;2024-03-23T13:55:46;10.70;99.90
4556;DHT22;2290;48.674;9.018;2024-03-23T13:58:14;10.60;99.90
4556;DHT22;2290;48.674;9.018;2024-03-23T14:00:39;10.50;99.90
4556;DHT22;2290;48.674;9.018;2024-03-23T14:03:05;10.00;99.90
4556;DHT22;2290;48.674;9.018;2024-03-23T14:05:31;9.60;99.90
4556;DHT22;2290;48.674;9.018;2024-03-23T14:07:57;9.40;99.90
4556;DHT22;2290;48.674;9.018;2024-03-23T14:10:22;8.70;99.90
4556;DHT22;2290;48.674;9.018;2024-03-23T14:12:48;8.50;99.90
4556;DHT22;2290;48.674;9.018;2024-03-23T14:15:14;8.40;99.90
4556;DHT22;2290;48.674;9.018;2024-03-23T14:17:40;8.70;99.90
4556;DHT22;2290;48.674;9.018;2024-03-23T14:20:06;9.20;99.90
4556;DHT22;2290;48.674;9.018;2024-03-23T14:22:34;9.90;99.90
4556;DHT22;2290;48.674;9.018;2024-03-23T14:25:00;9.90;99.90
4556;DHT22;2290;48.674;9.018;2024-03-23T14:27:27;9.70;99.90
4556;DHT22;2290;48.674;9.018;2024-03-23T14:29:52;9.30;99.90
4556;DHT22;2290;48.674;9.018;2024-03-23T14:32:18;8.80;99.90
4556;DHT22;2290;48.674;9.018;2024-03-23T14:34:43;9.00;99.90
4556;DHT22;2290;48.674;9.018;2024-03-23T14:37:09;9.40;99.90
4556;DHT22;2290;48.674;9.018;2024-03-23T14:39:34;9.90;99.90
4556;DHT22;2290;48.674;9.018;2024-03-23T14:42:01;10.40;99.90
4556;DHT22;2290;48.674;9.018;2024-03-23T14:44:28;9.70;99.90
4556;DHT22;2290;48.674;9.018;2024-03-23T14:46:54;9.10;99.90
4556;DHT22;2290;48.674;9.018;2024-03-23T14:49:20;8.70;99.90
4556;DHT22;2290;48.674;9.018;2024-03-23T14:51:46;8.40;99.90
4556;DHT22;2290;48.674;9.018;2024-03-23T14:54:12;8.20;99.90
4556;DHT22;2290;48.674;9.018;2024-03-23T14:56:39;8.10;99.90
4556;DHT22;2290;48.674;9.018;2024-03-23T14:59:05;8.10;99.90
4556;DHT22;2290;48.674;9.018;2024-03-23T15:01:32;7.90;99.90
4556;DHT22;2290;48.674;9.018;2024-03-23T15:03:57;7.30;99.90
4556;DHT22;2290;48.674;9.018;2024-03-23T15:06:23;7.20;99.90
4556;DHT22;2290;48.674;9.018;2024-03-23T15:08:48;8.50;99.90
4556;DHT22;2290;48.674;9.018;2024-03-23T15:11:14;11.40;99.90
4556;DHT22;2290;48.674;9.018;2024-03-23T15:13:43;13.10;99.90
4556;DHT22;2290;48.674;9.018;2024-03-23T15:16:10;15.00;99.90
4556;DHT22;2290;48.674;9.018;2024-03-23T15:18:36;16.70;99.90
4556;DHT22;2290;48.674;9.018;2024-03-23T15:21:03;17.90;99.90
4556;DHT22;2290;48.674;9.018;2024-03-23T15:23:33;18.90;99.90
4556;DHT22;2290;48.674;9.018;2024-03-23T15:26:00;19.40;99.90
4556;DHT22;2290;48.674;9.018;2024-03-23T15:28:26;18.00;98.90
4556;DHT22;2290;48.674;9.018;2024-03-23T15:31:03;18.30;99.90
4556;DHT22;2290;48.674;9.018;2024-03-23T15:33:29;18.60;99.40
4556;DHT22;2290;48.674;9.018;2024-03-23T15:35:58;18.80;98.90
4556;DHT22;2290;48.674;9.018;2024-03-23T15:38:24;17.70;98.80
4556;DHT22;2290;48.674;9.018;2024-03-23T15:40:53;15.60;99.70
4556;DHT22;2290;48.674;9.018;2024-03-23T15:43:19;13.80;99.90
4556;DHT22;2290;48.674;9.018;2024-03-23T15:45:53;12.10;99.90
4556;DHT22;2290;48.674;9.018;2024-03-23T15:48:18;11.00;99.90
4556;DHT22;2290;48.674;9.018;2024-03-23T15:50:53;10.20;99.90
4556;DHT22;2290;48.674;9.018;2024-03-23T15:53:20;9.30;99.90
4556;DHT22;2290;48.674;9.018;2024-03-23T15:55:52;8.80;99.90
4556;DHT22;2290;48.674;9.018;2024-03-23T15:58:18;8.40;99.90
4556;DHT22;2290;48.674;9.018;2024-03-23T16:00:43;7.80;99.90
4556;DHT22;2290;48.674;9.018;2024-03-23T16:03:09;7.80;99.90
4556;DHT22;2290;48.674;9.018;2024-03-23T16:05:34;9.10;99.90
4556;DHT22;2290;48.674;9.018;2024-03-23T16:08:00;11.40;99.90
4556;DHT22;2290;48.674;9.018;2024-03-23T16:10:27;12.20;99.90
4556;DHT22;2290;48.674;9.018;2024-03-23T16:12:52;11.90;99.90
4556;DHT22;2290;48.674;9.018;2024-03-23T16:15:18;10.70;99.90
4556;DHT22;2290;48.674;9.018;2024-03-23T16:17:43;9.70;99.90
4556;DHT22;2290;48.674;9.018;2024-03-23T16:20:09;9.40;99.90
4556;DHT22;2290;48.674;9.018;2024-03-23T16:22:35;9.40;99.90
4556;DHT22;2290;48.674;9.018;2024-03-23T16:25:01;9.30;99.90
4556;DHT22;2290;48.674;9.018;2024-03-23T16:27:27;9.90;99.90
4556;DHT22;2290;48.674;9.018;2024-03-23T16:29:52;10.80;99.90
4556;DHT22;2290;48.674;9.018;2024-03-23T16:32:18;11.20;99.90
4556;DHT22;2290;48.674;9.018;2024-03-23T16:34:44;11.50;99.90
4556;DHT22;2290;48.674;9.018;2024-03-23T16:37:10;12.30;99.90
4556;DHT22;2290;48.674;9.018;2024-03-23T16:39:36;12.70;99.90
4556;DHT22;2290;48.674;9.018;2024-03-23T16:42:02;11.80;99.90
4556;DHT22;2290;48.674;9.018;2024-03-23T16:44:29;11.10;99.90
4556;DHT22;2290;48.674;9.018;2024-03-23T16:46:54;10.50;99.90
4556;DHT22;2290;48.674;9.018;2024-03-23T16:49:20;10.10;99.90
4556;DHT22;2290;48.674;9.018;2024-03-23T16:51:45;9.70;99.90
4556;DHT22;2290;48.674;9.018;2024-03-23T16:54:12;9.10;99.90
4556;DHT22;2290;48.674;9.018;2024-03-23T16:56:38;8.90;99.90
4556;DHT22;2290;48.674;9.018;2024-03-23T16:59:03;8.70;99.90
4556;DHT22;2290;48.674;9.018;2024-03-23T17:01:30;8.40;99.90
4556;DHT22;2290;48.674;9.018;2024-03-23T17:03:55;8.20;99.90
4556;DHT22;2290;48.674;9.018;2024-03-23T17:06:21;8.00;99.90
4556;DHT22;2290;48.674;9.018;2024-03-23T17:08:49;7.90;99.90
4556;DHT22;2290;48.674;9.018;2024-03-23T17:11:15;7.80;99.90